Portada
METAR-TAF:

METAR-TAF

Aeroports :

Trebisonda, Turquia

latitud: 41-00N, longitud: 039-43E, altitud: 35 m

Observació

L'informe es va fer fa 33 minuts, a les 09:50 UTC
Vent 8 kt del Est
Temperatura 22°C
Humitat 78%
Pressió 1015 hPa
Visibilitat 10 km o més
Cel ennuvolat a una alçada de 1400 ft

METAR: LTCG 290950Z 10008KT 9999 BKN014 22/18 Q1015 NOSIG

Hora: 13:23 (10:23 UTC)

Pronòstic

L'informe es va fer fa 5 hores i 43 minuts, a les 04:40 UTC
Pronòstic vàlid del 29 a les 06 UTC al 30 a les 06 UTC
Vent 8 kt del Sud/Sud-Est
Visibilitat 10 km o més
sense núvols per sota de 1500 mi sense presència de cumulonimbus.
Probabilitat 30%
l' 29 a les 09 UTC al 29 a les 12 UTC
Visibilitat: 3500 m
Cel ennuvolat a una alçada de 1200 ft
boirina

TAF: LTCG 290440Z 2906/3006 15008KT CAVOK PROB30 2909/2912 3500 BR BKN012

Observacions i pronòstics meteorològics de més de 4000 aeroports (METAR i TAF).

Les estacions disponibles són els punts grocs i vermells al mapa.

Posi el ratolí al punt desitjat per veure el nom de l'estació.

Feu clic per veure les observacions i els pronòstics meteorològics.

Per canviar el mapa: feu clic els botons verds amb una creu de color negre per apropar; al botó verd amb un guió per allunyar la imatge; o en les fletxes verdes per a mapes adjacents.


METAR-TAF: